sensor_id;sensor_type;location;lat;lon;timestamp;temperature;humidity
78028;DHT22;67235;45.638;11.714;2023-06-14T00:01:57;20.70;71.40
78028;DHT22;67235;45.638;11.714;2023-06-14T00:04:23;20.60;71.70
78028;DHT22;67235;45.638;11.714;2023-06-14T00:06:50;20.60;71.70
78028;DHT22;67235;45.638;11.714;2023-06-14T00:09:16;20.50;71.70
78028;DHT22;67235;45.638;11.714;2023-06-14T00:11:43;20.50;72.10
78028;DHT22;67235;45.638;11.714;2023-06-14T00:14:09;20.50;72.00
78028;DHT22;67235;45.638;11.714;2023-06-14T00:16:35;20.50;72.20
78028;DHT22;67235;45.638;11.714;2023-06-14T00:19:02;20.50;72.20
78028;DHT22;67235;45.638;11.714;2023-06-14T00:21:32;20.50;72.10
78028;DHT22;67235;45.638;11.714;2023-06-14T00:23:58;20.50;72.40
78028;DHT22;67235;45.638;11.714;2023-06-14T00:26:25;20.50;72.50
78028;DHT22;67235;45.638;11.714;2023-06-14T00:28:52;20.40;72.80
78028;DHT22;67235;45.638;11.714;2023-06-14T00:31:18;20.40;72.70
78028;DHT22;67235;45.638;11.714;2023-06-14T00:33:44;20.40;73.00
78028;DHT22;67235;45.638;11.714;2023-06-14T00:36:10;20.40;73.00
78028;DHT22;67235;45.638;11.714;2023-06-14T00:38:36;20.40;72.70
78028;DHT22;67235;45.638;11.714;2023-06-14T00:41:02;20.40;72.60
78028;DHT22;67235;45.638;11.714;2023-06-14T00:43:28;20.30;73.10
78028;DHT22;67235;45.638;11.714;2023-06-14T00:45:53;20.20;73.00
78028;DHT22;67235;45.638;11.714;2023-06-14T00:48:20;20.20;72.70
78028;DHT22;67235;45.638;11.714;2023-06-14T00:50:46;20.20;72.50
78028;DHT22;67235;45.638;11.714;2023-06-14T00:53:15;20.20;72.60
78028;DHT22;67235;45.638;11.714;2023-06-14T00:55:41;20.10;72.90
78028;DHT22;67235;45.638;11.714;2023-06-14T00:58:08;20.10;73.20
78028;DHT22;67235;45.638;11.714;2023-06-14T01:00:34;19.90;73.30
78028;DHT22;67235;45.638;11.714;2023-06-14T01:03:00;19.90;73.70
78028;DHT22;67235;45.638;11.714;2023-06-14T01:05:27;20.00;73.50
78028;DHT22;67235;45.638;11.714;2023-06-14T01:08:23;19.90;73.70
78028;DHT22;67235;45.638;11.714;2023-06-14T01:11:10;19.90;73.80
78028;DHT22;67235;45.638;11.714;2023-06-14T01:13:40;19.90;73.50
78028;DHT22;67235;45.638;11.714;2023-06-14T01:16:08;19.90;73.60
78028;DHT22;67235;45.638;11.714;2023-06-14T01:18:34;19.90;73.60
78028;DHT22;67235;45.638;11.714;2023-06-14T01:21:01;19.90;73.10
78028;DHT22;67235;45.638;11.714;2023-06-14T01:23:32;19.80;73.20
78028;DHT22;67235;45.638;11.714;2023-06-14T01:25:59;19.90;73.10
78028;DHT22;67235;45.638;11.714;2023-06-14T01:28:27;19.90;73.20
78028;DHT22;67235;45.638;11.714;2023-06-14T01:31:00;19.90;72.90
78028;DHT22;67235;45.638;11.714;2023-06-14T01:33:29;20.00;72.90
78028;DHT22;67235;45.638;11.714;2023-06-14T01:35:56;20.00;73.20
78028;DHT22;67235;45.638;11.714;2023-06-14T01:38:25;20.10;73.00
78028;DHT22;67235;45.638;11.714;2023-06-14T01:40:52;20.10;73.10
78028;DHT22;67235;45.638;11.714;2023-06-14T01:43:20;20.20;73.30
78028;DHT22;67235;45.638;11.714;2023-06-14T01:45:48;20.10;73.80
78028;DHT22;67235;45.638;11.714;2023-06-14T01:48:17;20.10;73.50
78028;DHT22;67235;45.638;11.714;2023-06-14T01:50:43;19.90;73.60
78028;DHT22;67235;45.638;11.714;2023-06-14T01:53:10;20.00;73.30
78028;DHT22;67235;45.638;11.714;2023-06-14T01:55:36;19.90;73.60
78028;DHT22;67235;45.638;11.714;2023-06-14T01:58:11;19.90;73.80
78028;DHT22;67235;45.638;11.714;2023-06-14T02:00:37;19.70;74.10
78028;DHT22;67235;45.638;11.714;2023-06-14T02:03:03;19.80;74.10
78028;DHT22;67235;45.638;11.714;2023-06-14T02:05:31;19.70;74.00
78028;DHT22;67235;45.638;11.714;2023-06-14T02:07:57;19.80;74.00
78028;DHT22;67235;45.638;11.714;2023-06-14T02:10:23;19.70;74.20
78028;DHT22;67235;45.638;11.714;2023-06-14T02:12:49;19.60;74.40
78028;DHT22;67235;45.638;11.714;2023-06-14T02:15:15;19.60;74.50
78028;DHT22;67235;45.638;11.714;2023-06-14T02:17:45;19.70;74.40
78028;DHT22;67235;45.638;11.714;2023-06-14T02:20:15;19.60;74.20
78028;DHT22;67235;45.638;11.714;2023-06-14T02:22:41;19.60;74.40
78028;DHT22;67235;45.638;11.714;2023-06-14T02:25:08;19.60;74.40
78028;DHT22;67235;45.638;11.714;2023-06-14T02:27:34;19.60;74.40
78028;DHT22;67235;45.638;11.714;2023-06-14T02:30:00;19.60;74.00
78028;DHT22;67235;45.638;11.714;2023-06-14T02:32:26;19.60;73.80
78028;DHT22;67235;45.638;11.714;2023-06-14T02:34:56;19.60;73.80
78028;DHT22;67235;45.638;11.714;2023-06-14T02:37:22;19.60;73.80
78028;DHT22;67235;45.638;11.714;2023-06-14T02:39:48;19.70;73.40
78028;DHT22;67235;45.638;11.714;2023-06-14T02:42:14;19.60;73.80
78028;DHT22;67235;45.638;11.714;2023-06-14T02:44:40;19.60;73.80
78028;DHT22;67235;45.638;11.714;2023-06-14T02:47:06;19.50;74.10
78028;DHT22;67235;45.638;11.714;2023-06-14T02:49:32;19.50;74.20
78028;DHT22;67235;45.638;11.714;2023-06-14T02:51:58;19.50;74.40
78028;DHT22;67235;45.638;11.714;2023-06-14T02:54:24;19.50;74.20
78028;DHT22;67235;45.638;11.714;2023-06-14T02:56:49;19.40;74.10
78028;DHT22;67235;45.638;11.714;2023-06-14T02:59:16;19.40;74.10
78028;DHT22;67235;45.638;11.714;2023-06-14T03:01:42;19.40;74.60
78028;DHT22;67235;45.638;11.714;2023-06-14T03:04:08;19.40;74.30
78028;DHT22;67235;45.638;11.714;2023-06-14T03:06:34;19.30;74.40
78028;DHT22;67235;45.638;11.714;2023-06-14T03:09:02;19.20;74.50
78028;DHT22;67235;45.638;11.714;2023-06-14T03:11:32;19.20;74.50
78028;DHT22;67235;45.638;11.714;2023-06-14T03:13:58;19.10;74.70
78028;DHT22;67235;45.638;11.714;2023-06-14T03:16:24;19.20;74.80
78028;DHT22;67235;45.638;11.714;2023-06-14T03:18:51;19.20;74.70
78028;DHT22;67235;45.638;11.714;2023-06-14T03:21:18;19.20;74.90
78028;DHT22;67235;45.638;11.714;2023-06-14T03:23:45;19.30;75.00
78028;DHT22;67235;45.638;11.714;2023-06-14T03:26:11;19.30;74.90
78028;DHT22;67235;45.638;11.714;2023-06-14T03:28:41;19.30;74.80
78028;DHT22;67235;45.638;11.714;2023-06-14T03:31:07;19.20;74.30
78028;DHT22;67235;45.638;11.714;2023-06-14T03:33:34;19.20;74.20
78028;DHT22;67235;45.638;11.714;2023-06-14T03:36:01;19.30;74.20
78028;DHT22;67235;45.638;11.714;2023-06-14T03:38:27;19.30;74.10
78028;DHT22;67235;45.638;11.714;2023-06-14T03:40:53;19.30;74.40
78028;DHT22;67235;45.638;11.714;2023-06-14T03:43:19;19.40;74.50
78028;DHT22;67235;45.638;11.714;2023-06-14T03:45:45;19.40;73.90
78028;DHT22;67235;45.638;11.714;2023-06-14T03:48:11;19.50;74.00
78028;DHT22;67235;45.638;11.714;2023-06-14T03:50:37;19.40;74.10
78028;DHT22;67235;45.638;11.714;2023-06-14T03:53:06;19.50;74.10
78028;DHT22;67235;45.638;11.714;2023-06-14T03:55:32;19.40;73.90
78028;DHT22;67235;45.638;11.714;2023-06-14T03:57:58;19.50;74.10
78028;DHT22;67235;45.638;11.714;2023-06-14T04:00:25;19.70;73.90
78028;DHT22;67235;45.638;11.714;2023-06-14T04:02:51;19.90;73.70
78028;DHT22;67235;45.638;11.714;2023-06-14T04:05:17;20.30;73.20
78028;DHT22;67235;45.638;11.714;2023-06-14T04:07:45;20.60;72.80
78028;DHT22;67235;45.638;11.714;2023-06-14T04:10:15;21.00;70.70
78028;DHT22;67235;45.638;11.714;2023-06-14T04:12:42;21.30;70.20
78028;DHT22;67235;45.638;11.714;2023-06-14T04:15:09;21.50;69.70
78028;DHT22;67235;45.638;11.714;2023-06-14T04:17:36;22.10;69.00
78028;DHT22;67235;45.638;11.714;2023-06-14T04:20:02;22.80;67.70
78028;DHT22;67235;45.638;11.714;2023-06-14T04:22:30;22.80;67.80
78028;DHT22;67235;45.638;11.714;2023-06-14T04:24:57;22.40;68.00
78028;DHT22;67235;45.638;11.714;2023-06-14T04:27:23;22.00;68.20
78028;DHT22;67235;45.638;11.714;2023-06-14T04:29:52;21.70;68.80
78028;DHT22;67235;45.638;11.714;2023-06-14T04:32:26;21.50;69.10
78028;DHT22;67235;45.638;11.714;2023-06-14T04:34:54;21.40;69.30
78028;DHT22;67235;45.638;11.714;2023-06-14T04:37:23;21.20;69.60
78028;DHT22;67235;45.638;11.714;2023-06-14T04:39:49;21.20;69.70
78028;DHT22;67235;45.638;11.714;2023-06-14T04:42:16;21.30;69.90
78028;DHT22;67235;45.638;11.714;2023-06-14T04:44:42;21.30;70.50
78028;DHT22;67235;45.638;11.714;2023-06-14T04:47:09;21.40;70.70
78028;DHT22;67235;45.638;11.714;2023-06-14T04:49:36;21.60;70.30
78028;DHT22;67235;45.638;11.714;2023-06-14T04:52:02;21.70;70.00
78028;DHT22;67235;45.638;11.714;2023-06-14T04:54:28;21.70;69.80
78028;DHT22;67235;45.638;11.714;2023-06-14T04:56:57;21.70;69.70
78028;DHT22;67235;45.638;11.714;2023-06-14T04:59:23;21.90;69.80
78028;DHT22;67235;45.638;11.714;2023-06-14T05:01:50;22.00;69.60
78028;DHT22;67235;45.638;11.714;2023-06-14T05:04:17;22.10;69.50
78028;DHT22;67235;45.638;11.714;2023-06-14T05:06:45;22.30;69.70
78028;DHT22;67235;45.638;11.714;2023-06-14T05:09:14;22.50;69.60
78028;DHT22;67235;45.638;11.714;2023-06-14T05:11:43;22.70;69.60
78028;DHT22;67235;45.638;11.714;2023-06-14T05:14:11;22.80;69.30
78028;DHT22;67235;45.638;11.714;2023-06-14T05:16:38;22.80;69.00
78028;DHT22;67235;45.638;11.714;2023-06-14T05:19:05;22.80;68.80
78028;DHT22;67235;45.638;11.714;2023-06-14T05:21:31;22.90;68.60
78028;DHT22;67235;45.638;11.714;2023-06-14T05:24:04;23.00;68.70
78028;DHT22;67235;45.638;11.714;2023-06-14T05:26:31;23.10;67.90
78028;DHT22;67235;45.638;11.714;2023-06-14T05:28:57;23.10;67.60
78028;DHT22;67235;45.638;11.714;2023-06-14T05:31:26;23.40;67.70
78028;DHT22;67235;45.638;11.714;2023-06-14T05:33:52;23.90;67.90
78028;DHT22;67235;45.638;11.714;2023-06-14T05:36:22;24.30;67.50
78028;DHT22;67235;45.638;11.714;2023-06-14T05:38:49;24.60;67.20
78028;DHT22;67235;45.638;11.714;2023-06-14T05:41:16;24.60;67.10
78028;DHT22;67235;45.638;11.714;2023-06-14T05:43:43;24.70;66.80
78028;DHT22;67235;45.638;11.714;2023-06-14T05:46:09;24.70;65.80
78028;DHT22;67235;45.638;11.714;2023-06-14T05:48:35;25.00;64.60
78028;DHT22;67235;45.638;11.714;2023-06-14T05:51:01;25.40;64.00
78028;DHT22;67235;45.638;11.714;2023-06-14T05:53:27;26.40;59.70
78028;DHT22;67235;45.638;11.714;2023-06-14T05:55:53;27.00;57.00
78028;DHT22;67235;45.638;11.714;2023-06-14T05:58:20;27.60;55.80
78028;DHT22;67235;45.638;11.714;2023-06-14T06:00:46;27.60;55.10
78028;DHT22;67235;45.638;11.714;2023-06-14T06:03:12;28.00;53.80
78028;DHT22;67235;45.638;11.714;2023-06-14T06:05:39;28.40;53.10
78028;DHT22;67235;45.638;11.714;2023-06-14T06:08:05;28.60;53.40
78028;DHT22;67235;45.638;11.714;2023-06-14T06:10:31;28.70;52.40
78028;DHT22;67235;45.638;11.714;2023-06-14T06:12:57;28.90;52.20
78028;DHT22;67235;45.638;11.714;2023-06-14T06:15:23;29.30;48.70
78028;DHT22;67235;45.638;11.714;2023-06-14T06:17:49;29.60;47.30
78028;DHT22;67235;45.638;11.714;2023-06-14T06:20:16;29.50;46.50
78028;DHT22;67235;45.638;11.714;2023-06-14T06:22:43;29.30;48.30
78028;DHT22;67235;45.638;11.714;2023-06-14T06:25:09;29.10;49.50
78028;DHT22;67235;45.638;11.714;2023-06-14T06:27:35;29.20;47.80
78028;DHT22;67235;45.638;11.714;2023-06-14T06:30:06;29.00;47.90
78028;DHT22;67235;45.638;11.714;2023-06-14T06:32:32;28.90;48.20
78028;DHT22;67235;45.638;11.714;2023-06-14T06:34:58;28.80;49.20
78028;DHT22;67235;45.638;11.714;2023-06-14T06:37:25;28.90;50.10
78028;DHT22;67235;45.638;11.714;2023-06-14T06:39:51;29.00;51.30
78028;DHT22;67235;45.638;11.714;2023-06-14T06:42:17;29.30;49.20
78028;DHT22;67235;45.638;11.714;2023-06-14T06:44:42;30.40;44.20
78028;DHT22;67235;45.638;11.714;2023-06-14T06:47:08;30.90;46.60
78028;DHT22;67235;45.638;11.714;2023-06-14T06:49:36;31.20;43.10
78028;DHT22;67235;45.638;11.714;2023-06-14T06:52:04;30.80;43.50
78028;DHT22;67235;45.638;11.714;2023-06-14T06:54:31;30.70;44.70
78028;DHT22;67235;45.638;11.714;2023-06-14T06:56:57;30.60;43.50
78028;DHT22;67235;45.638;11.714;2023-06-14T06:59:23;30.90;42.30
78028;DHT22;67235;45.638;11.714;2023-06-14T07:01:49;30.90;41.20
78028;DHT22;67235;45.638;11.714;2023-06-14T07:04:15;30.60;43.10
78028;DHT22;67235;45.638;11.714;2023-06-14T07:06:42;30.70;40.00
78028;DHT22;67235;45.638;11.714;2023-06-14T07:09:08;30.40;41.60
78028;DHT22;67235;45.638;11.714;2023-06-14T07:11:40;30.50;40.20
78028;DHT22;67235;45.638;11.714;2023-06-14T07:14:06;30.30;39.10
78028;DHT22;67235;45.638;11.714;2023-06-14T07:16:32;29.60;41.20
78028;DHT22;67235;45.638;11.714;2023-06-14T07:18:58;29.30;40.30
78028;DHT22;67235;45.638;11.714;2023-06-14T07:21:24;29.10;43.30
78028;DHT22;67235;45.638;11.714;2023-06-14T07:23:53;29.10;38.30
78028;DHT22;67235;45.638;11.714;2023-06-14T07:26:19;29.00;41.20
78028;DHT22;67235;45.638;11.714;2023-06-14T07:28:46;28.70;41.80
78028;DHT22;67235;45.638;11.714;2023-06-14T07:31:15;28.50;42.90
78028;DHT22;67235;45.638;11.714;2023-06-14T07:33:42;28.30;42.60
78028;DHT22;67235;45.638;11.714;2023-06-14T07:36:08;28.30;43.20
78028;DHT22;67235;45.638;11.714;2023-06-14T07:38:34;28.20;45.50
78028;DHT22;67235;45.638;11.714;2023-06-14T07:41:00;28.30;43.40
78028;DHT22;67235;45.638;11.714;2023-06-14T07:43:26;28.40;45.80
78028;DHT22;67235;45.638;11.714;2023-06-14T07:45:52;28.50;45.30
78028;DHT22;67235;45.638;11.714;2023-06-14T07:48:18;28.60;43.70
78028;DHT22;67235;45.638;11.714;2023-06-14T07:50:44;28.30;43.70
78028;DHT22;67235;45.638;11.714;2023-06-14T07:53:11;28.20;44.80
78028;DHT22;67235;45.638;11.714;2023-06-14T07:55:36;28.50;45.80
78028;DHT22;67235;45.638;11.714;2023-06-14T07:58:09;28.70;46.20
78028;DHT22;67235;45.638;11.714;2023-06-14T08:00:35;28.80;45.60
78028;DHT22;67235;45.638;11.714;2023-06-14T08:03:02;29.00;45.50
78028;DHT22;67235;45.638;11.714;2023-06-14T08:05:28;29.40;42.40
78028;DHT22;67235;45.638;11.714;2023-06-14T08:07:55;29.80;42.10
78028;DHT22;67235;45.638;11.714;2023-06-14T08:10:21;30.10;41.20
78028;DHT22;67235;45.638;11.714;2023-06-14T08:12:47;30.40;39.70
78028;DHT22;67235;45.638;11.714;2023-06-14T08:15:17;30.60;37.80
78028;DHT22;67235;45.638;11.714;2023-06-14T08:17:44;30.70;37.90
78028;DHT22;67235;45.638;11.714;2023-06-14T08:20:10;30.70;40.20
78028;DHT22;67235;45.638;11.714;2023-06-14T08:22:36;30.90;39.60
78028;DHT22;67235;45.638;11.714;2023-06-14T08:25:03;31.00;40.10
78028;DHT22;67235;45.638;11.714;2023-06-14T08:27:30;31.00;40.30
78028;DHT22;67235;45.638;11.714;2023-06-14T08:29:56;31.10;38.80
78028;DHT22;67235;45.638;11.714;2023-06-14T08:32:22;30.90;38.70
78028;DHT22;67235;45.638;11.714;2023-06-14T08:34:48;30.10;39.70
78028;DHT22;67235;45.638;11.714;2023-06-14T08:37:14;29.90;38.30
78028;DHT22;67235;45.638;11.714;2023-06-14T08:39:40;29.50;40.90
78028;DHT22;67235;45.638;11.714;2023-06-14T08:42:07;29.40;41.00
78028;DHT22;67235;45.638;11.714;2023-06-14T08:44:34;29.40;41.50
78028;DHT22;67235;45.638;11.714;2023-06-14T08:47:00;29.20;41.40
78028;DHT22;67235;45.638;11.714;2023-06-14T08:49:29;29.20;42.80
78028;DHT22;67235;45.638;11.714;2023-06-14T08:52:00;29.20;41.40
78028;DHT22;67235;45.638;11.714;2023-06-14T08:54:28;29.10;41.60
78028;DHT22;67235;45.638;11.714;2023-06-14T08:56:58;29.00;44.00
78028;DHT22;67235;45.638;11.714;2023-06-14T08:59:28;29.20;42.00
78028;DHT22;67235;45.638;11.714;2023-06-14T09:01:54;29.20;42.90
78028;DHT22;67235;45.638;11.714;2023-06-14T09:04:24;29.00;43.10
78028;DHT22;67235;45.638;11.714;2023-06-14T09:06:55;28.80;44.00
78028;DHT22;67235;45.638;11.714;2023-06-14T09:09:22;28.70;44.10
78028;DHT22;67235;45.638;11.714;2023-06-14T09:11:54;28.80;44.10
78028;DHT22;67235;45.638;11.714;2023-06-14T09:14:23;28.80;43.60
78028;DHT22;67235;45.638;11.714;2023-06-14T09:16:52;28.60;45.80
78028;DHT22;67235;45.638;11.714;2023-06-14T09:19:23;28.60;45.30
78028;DHT22;67235;45.638;11.714;2023-06-14T09:21:49;28.50;44.90
78028;DHT22;67235;45.638;11.714;2023-06-14T09:24:17;28.50;44.00
78028;DHT22;67235;45.638;11.714;2023-06-14T09:26:43;28.60;45.00
78028;DHT22;67235;45.638;11.714;2023-06-14T09:29:09;28.70;43.50
78028;DHT22;67235;45.638;11.714;2023-06-14T09:31:35;28.70;44.20
78028;DHT22;67235;45.638;11.714;2023-06-14T09:34:02;28.80;44.30
78028;DHT22;67235;45.638;11.714;2023-06-14T09:36:31;28.90;45.80
78028;DHT22;67235;45.638;11.714;2023-06-14T09:39:02;28.90;42.90
78028;DHT22;67235;45.638;11.714;2023-06-14T09:41:38;29.10;44.70
78028;DHT22;67235;45.638;11.714;2023-06-14T09:44:06;29.00;44.80
78028;DHT22;67235;45.638;11.714;2023-06-14T09:46:32;29.10;45.70
78028;DHT22;67235;45.638;11.714;2023-06-14T09:48:59;29.20;43.80
78028;DHT22;67235;45.638;11.714;2023-06-14T09:51:25;29.20;43.60
78028;DHT22;67235;45.638;11.714;2023-06-14T09:53:52;28.90;42.70
78028;DHT22;67235;45.638;11.714;2023-06-14T09:56:29;28.80;44.50
78028;DHT22;67235;45.638;11.714;2023-06-14T09:58:57;28.70;44.00
78028;DHT22;67235;45.638;11.714;2023-06-14T10:01:25;28.60;43.80
78028;DHT22;67235;45.638;11.714;2023-06-14T10:04:05;28.40;44.90
78028;DHT22;67235;45.638;11.714;2023-06-14T10:06:34;28.50;45.50
78028;DHT22;67235;45.638;11.714;2023-06-14T10:09:04;28.40;44.00
78028;DHT22;67235;45.638;11.714;2023-06-14T10:11:31;28.30;46.40
78028;DHT22;67235;45.638;11.714;2023-06-14T10:13:58;28.20;45.00
78028;DHT22;67235;45.638;11.714;2023-06-14T10:19:46;28.10;46.80
78028;DHT22;67235;45.638;11.714;2023-06-14T10:22:43;28.20;44.30
78028;DHT22;67235;45.638;11.714;2023-06-14T10:25:26;28.30;44.20
78028;DHT22;67235;45.638;11.714;2023-06-14T10:28:02;28.20;44.00
78028;DHT22;67235;45.638;11.714;2023-06-14T10:30:28;28.40;43.20
78028;DHT22;67235;45.638;11.714;2023-06-14T10:33:04;28.40;44.70
78028;DHT22;67235;45.638;11.714;2023-06-14T10:35:31;28.60;42.10
78028;DHT22;67235;45.638;11.714;2023-06-14T10:38:11;28.60;43.00
78028;DHT22;67235;45.638;11.714;2023-06-14T10:40:39;28.70;41.50
78028;DHT22;67235;45.638;11.714;2023-06-14T10:43:22;28.80;41.10
78028;DHT22;67235;45.638;11.714;2023-06-14T10:46:17;29.20;43.40
78028;DHT22;67235;45.638;11.714;2023-06-14T10:48:44;30.00;40.50
78028;DHT22;67235;45.638;11.714;2023-06-14T10:51:20;30.30;41.40
78028;DHT22;67235;45.638;11.714;2023-06-14T10:53:50;30.40;39.90
78028;DHT22;67235;45.638;11.714;2023-06-14T10:56:29;30.40;40.10
78028;DHT22;67235;45.638;11.714;2023-06-14T10:58:57;30.10;37.80
78028;DHT22;67235;45.638;11.714;2023-06-14T11:01:41;29.90;39.10
78028;DHT22;67235;45.638;11.714;2023-06-14T11:04:11;29.90;38.60
78028;DHT22;67235;45.638;11.714;2023-06-14T11:06:50;29.90;38.90
78028;DHT22;67235;45.638;11.714;2023-06-14T11:09:57;29.90;40.80
78028;DHT22;67235;45.638;11.714;2023-06-14T11:12:28;29.90;41.20
78028;DHT22;67235;45.638;11.714;2023-06-14T11:14:57;30.40;41.10
78028;DHT22;67235;45.638;11.714;2023-06-14T11:17:23;30.50;41.00
78028;DHT22;67235;45.638;11.714;2023-06-14T11:19:49;30.60;40.00
78028;DHT22;67235;45.638;11.714;2023-06-14T11:22:15;30.70;42.20
78028;DHT22;67235;45.638;11.714;2023-06-14T11:24:43;30.70;41.10
78028;DHT22;67235;45.638;11.714;2023-06-14T11:27:09;30.70;42.60
78028;DHT22;67235;45.638;11.714;2023-06-14T11:29:36;30.80;38.90
78028;DHT22;67235;45.638;11.714;2023-06-14T11:32:05;30.90;33.90
78028;DHT22;67235;45.638;11.714;2023-06-14T11:34:32;30.80;37.40
78028;DHT22;67235;45.638;11.714;2023-06-14T11:36:58;30.60;36.10
78028;DHT22;67235;45.638;11.714;2023-06-14T11:39:26;30.80;35.70
78028;DHT22;67235;45.638;11.714;2023-06-14T11:41:53;31.00;36.90
78028;DHT22;67235;45.638;11.714;2023-06-14T11:44:20;31.20;37.60
78028;DHT22;67235;45.638;11.714;2023-06-14T11:46:46;31.90;36.50
78028;DHT22;67235;45.638;11.714;2023-06-14T11:49:12;32.20;34.80
78028;DHT22;67235;45.638;11.714;2023-06-14T11:51:38;32.00;32.70
78028;DHT22;67235;45.638;11.714;2023-06-14T11:54:06;31.70;32.70
78028;DHT22;67235;45.638;11.714;2023-06-14T11:56:33;31.20;34.50
78028;DHT22;67235;45.638;11.714;2023-06-14T11:58:59;31.30;34.90
78028;DHT22;67235;45.638;11.714;2023-06-14T12:01:26;31.20;37.30
78028;DHT22;67235;45.638;11.714;2023-06-14T12:03:53;31.50;40.10
78028;DHT22;67235;45.638;11.714;2023-06-14T12:06:30;31.90;35.20
78028;DHT22;67235;45.638;11.714;2023-06-14T12:08:58;32.00;33.60
78028;DHT22;67235;45.638;11.714;2023-06-14T12:11:31;31.80;32.20
78028;DHT22;67235;45.638;11.714;2023-06-14T12:13:58;31.40;34.90
78028;DHT22;67235;45.638;11.714;2023-06-14T12:16:31;31.00;35.10
78028;DHT22;67235;45.638;11.714;2023-06-14T12:19:01;30.70;35.00
78028;DHT22;67235;45.638;11.714;2023-06-14T12:21:27;30.20;37.50
78028;DHT22;67235;45.638;11.714;2023-06-14T12:23:54;29.80;34.70
78028;DHT22;67235;45.638;11.714;2023-06-14T12:26:20;29.50;34.30
78028;DHT22;67235;45.638;11.714;2023-06-14T12:28:48;29.50;37.10
78028;DHT22;67235;45.638;11.714;2023-06-14T12:31:16;29.60;38.30
78028;DHT22;67235;45.638;11.714;2023-06-14T12:33:42;29.90;36.90
78028;DHT22;67235;45.638;11.714;2023-06-14T12:36:09;30.20;32.00
78028;DHT22;67235;45.638;11.714;2023-06-14T12:38:37;30.20;38.70
78028;DHT22;67235;45.638;11.714;2023-06-14T12:41:04;30.10;34.60
78028;DHT22;67235;45.638;11.714;2023-06-14T12:43:35;29.80;36.90
78028;DHT22;67235;45.638;11.714;2023-06-14T12:46:03;29.40;35.40
78028;DHT22;67235;45.638;11.714;2023-06-14T12:48:29;29.30;36.90
78028;DHT22;67235;45.638;11.714;2023-06-14T12:50:57;29.50;35.70
78028;DHT22;67235;45.638;11.714;2023-06-14T12:53:23;29.40;34.90
78028;DHT22;67235;45.638;11.714;2023-06-14T12:55:49;29.30;34.60
78028;DHT22;67235;45.638;11.714;2023-06-14T12:58:16;29.30;36.30
78028;DHT22;67235;45.638;11.714;2023-06-14T13:00:43;29.50;38.60
78028;DHT22;67235;45.638;11.714;2023-06-14T13:03:10;29.30;35.80
78028;DHT22;67235;45.638;11.714;2023-06-14T13:05:36;29.40;35.20
78028;DHT22;67235;45.638;11.714;2023-06-14T13:08:03;29.30;36.10
78028;DHT22;67235;45.638;11.714;2023-06-14T13:10:29;29.40;34.30
78028;DHT22;67235;45.638;11.714;2023-06-14T13:12:54;29.40;36.20
78028;DHT22;67235;45.638;11.714;2023-06-14T13:15:20;29.50;37.00
78028;DHT22;67235;45.638;11.714;2023-06-14T13:17:46;29.50;35.40
78028;DHT22;67235;45.638;11.714;2023-06-14T13:20:14;29.60;35.20
78028;DHT22;67235;45.638;11.714;2023-06-14T13:22:41;29.60;32.90
78028;DHT22;67235;45.638;11.714;2023-06-14T13:25:07;29.70;33.50
78028;DHT22;67235;45.638;11.714;2023-06-14T13:27:33;29.70;32.00
78028;DHT22;67235;45.638;11.714;2023-06-14T13:29:59;29.60;37.90
78028;DHT22;67235;45.638;11.714;2023-06-14T13:32:25;29.80;33.70
78028;DHT22;67235;45.638;11.714;2023-06-14T13:34:50;29.80;33.80
78028;DHT22;67235;45.638;11.714;2023-06-14T13:37:17;29.60;33.40
78028;DHT22;67235;45.638;11.714;2023-06-14T13:39:43;29.70;34.40
78028;DHT22;67235;45.638;11.714;2023-06-14T13:42:09;29.60;31.60
78028;DHT22;67235;45.638;11.714;2023-06-14T13:44:36;29.70;37.00
78028;DHT22;67235;45.638;11.714;2023-06-14T13:47:03;29.80;35.90
78028;DHT22;67235;45.638;11.714;2023-06-14T13:49:29;29.90;34.70
78028;DHT22;67235;45.638;11.714;2023-06-14T13:51:56;30.00;36.20
78028;DHT22;67235;45.638;11.714;2023-06-14T13:54:22;30.00;34.80
78028;DHT22;67235;45.638;11.714;2023-06-14T13:56:48;29.90;34.50
78028;DHT22;67235;45.638;11.714;2023-06-14T13:59:14;29.50;33.40
78028;DHT22;67235;45.638;11.714;2023-06-14T14:01:40;29.30;34.30
78028;DHT22;67235;45.638;11.714;2023-06-14T14:04:07;29.10;35.00
78028;DHT22;67235;45.638;11.714;2023-06-14T14:06:37;29.10;35.50
78028;DHT22;67235;45.638;11.714;2023-06-14T14:09:07;29.10;34.50
78028;DHT22;67235;45.638;11.714;2023-06-14T14:11:36;29.20;33.50
78028;DHT22;67235;45.638;11.714;2023-06-14T14:14:03;29.10;34.20
78028;DHT22;67235;45.638;11.714;2023-06-14T14:16:30;28.90;36.80
78028;DHT22;67235;45.638;11.714;2023-06-14T14:18:57;28.90;36.60
78028;DHT22;67235;45.638;11.714;2023-06-14T14:21:23;28.80;38.10
78028;DHT22;67235;45.638;11.714;2023-06-14T14:23:49;28.80;37.70
78028;DHT22;67235;45.638;11.714;2023-06-14T14:26:15;28.90;35.20
78028;DHT22;67235;45.638;11.714;2023-06-14T14:28:41;28.90;34.60
78028;DHT22;67235;45.638;11.714;2023-06-14T14:31:07;28.90;33.40
78028;DHT22;67235;45.638;11.714;2023-06-14T14:33:33;29.00;35.00
78028;DHT22;67235;45.638;11.714;2023-06-14T14:36:00;29.20;33.70
78028;DHT22;67235;45.638;11.714;2023-06-14T14:38:29;29.30;35.00
78028;DHT22;67235;45.638;11.714;2023-06-14T14:40:55;29.30;35.40
78028;DHT22;67235;45.638;11.714;2023-06-14T14:43:21;29.30;38.20
78028;DHT22;67235;45.638;11.714;2023-06-14T14:45:47;29.40;35.20
78028;DHT22;67235;45.638;11.714;2023-06-14T14:48:12;29.40;32.90
78028;DHT22;67235;45.638;11.714;2023-06-14T14:50:38;29.30;35.40
78028;DHT22;67235;45.638;11.714;2023-06-14T14:53:05;29.30;31.50
78028;DHT22;67235;45.638;11.714;2023-06-14T14:55:32;29.30;35.20
78028;DHT22;67235;45.638;11.714;2023-06-14T14:58:00;29.20;36.60
78028;DHT22;67235;45.638;11.714;2023-06-14T15:00:26;29.30;35.70
78028;DHT22;67235;45.638;11.714;2023-06-14T15:02:52;29.30;34.40
78028;DHT22;67235;45.638;11.714;2023-06-14T15:05:18;29.40;35.50
78028;DHT22;67235;45.638;11.714;2023-06-14T15:07:44;29.50;37.20
78028;DHT22;67235;45.638;11.714;2023-06-14T15:10:11;29.80;33.20
78028;DHT22;67235;45.638;11.714;2023-06-14T15:12:37;29.60;33.10
78028;DHT22;67235;45.638;11.714;2023-06-14T15:15:06;29.50;33.40
78028;DHT22;67235;45.638;11.714;2023-06-14T15:17:34;29.20;36.30
78028;DHT22;67235;45.638;11.714;2023-06-14T15:20:04;29.20;34.30
78028;DHT22;67235;45.638;11.714;2023-06-14T15:22:31;29.20;36.60